createdAt,value
2023-07-12T00:00:13.696Z,99907.25
2023-07-12T00:02:40.684Z,99909.81
2023-07-12T00:05:07.599Z,99902.28
2023-07-12T00:07:34.411Z,99903.19
2023-07-12T00:10:01.278Z,99896.06
2023-07-12T00:12:28.165Z,99895.06
2023-07-12T00:14:55.058Z,99893.09
2023-07-12T00:17:22.235Z,99893.56
2023-07-12T00:19:49.280Z,99893.56
2023-07-12T00:22:16.185Z,99886.56
2023-07-12T00:24:43.135Z,99889.47
2023-07-12T00:27:10.137Z,99889.91
2023-07-12T00:29:37.065Z,99891.59
2023-07-12T00:32:04.022Z,99896.53
2023-07-12T00:34:30.853Z,99898.66
2023-07-12T00:36:57.747Z,99896.06
2023-07-12T00:39:24.645Z,99898.19
2023-07-12T00:41:51.600Z,99894.03
2023-07-12T00:44:18.441Z,99897.00
2023-07-12T00:46:45.312Z,99889.69
2023-07-12T00:49:12.275Z,99893.63
2023-07-12T00:51:39.275Z,99882.84
2023-07-12T00:54:06.206Z,99875.34
2023-07-12T00:56:33.117Z,99881.66
2023-07-12T00:58:59.990Z,99881.34
2023-07-12T01:01:26.837Z,99876.25
2023-07-12T01:03:53.978Z,99876.25
2023-07-12T01:06:21.066Z,99863.88
2023-07-12T01:08:47.889Z,99864.50
2023-07-12T01:11:14.739Z,99870.81
2023-07-12T01:13:41.633Z,99856.69
2023-07-12T01:16:08.562Z,99859.25
2023-07-12T01:18:35.576Z,99857.59
2023-07-12T01:21:02.609Z,99864.50
2023-07-12T01:23:29.582Z,99859.69
2023-07-12T01:25:56.533Z,99859.69
2023-07-12T01:28:23.724Z,99863.81
2023-07-12T01:30:50.563Z,99852.31
2023-07-12T01:33:17.380Z,99850.91
2023-07-12T01:35:44.385Z,99857.13
2023-07-12T01:38:11.317Z,99850.06
2023-07-12T01:40:38.264Z,99854.88
2023-07-12T01:43:05.278Z,99850.91
2023-07-12T01:45:32.191Z,99855.19
2023-07-12T01:47:59.116Z,99853.97
2023-07-12T01:50:25.994Z,99856.91
2023-07-12T01:52:52.864Z,99857.28
2023-07-12T01:55:19.815Z,99857.22
2023-07-12T01:57:46.650Z,99855.19
2023-07-12T02:00:13.581Z,99857.28
2023-07-12T02:02:40.597Z,99855.63
2023-07-12T02:05:07.758Z,99851.88
2023-07-12T02:07:34.584Z,99857.28
2023-07-12T02:10:01.446Z,99853.97
2023-07-12T02:12:28.386Z,99853.97
2023-07-12T02:14:55.315Z,99852.78
2023-07-12T02:17:22.187Z,99855.22
2023-07-12T02:19:49.251Z,99854.84
2023-07-12T02:22:16.153Z,99847.78
2023-07-12T02:24:43.153Z,99849.44
2023-07-12T02:27:10.183Z,99844.03
2023-07-12T02:29:37.162Z,99843.59
2023-07-12T02:32:04.231Z,99844.03
2023-07-12T02:34:31.106Z,99847.34
2023-07-12T02:36:58.137Z,99852.00
2023-07-12T02:39:24.991Z,99843.31
2023-07-12T02:41:51.812Z,99838.69
2023-07-12T02:44:18.629Z,99838.31
2023-07-12T02:46:45.524Z,99839.97
2023-07-12T02:49:12.598Z,99839.66
2023-07-12T02:51:39.558Z,99850.78
2023-07-12T02:54:06.418Z,99847.88
2023-07-12T02:56:33.306Z,99841.19
2023-07-12T02:59:00.207Z,99839.16
2023-07-12T03:01:27.343Z,99836.59
2023-07-12T03:03:54.253Z,99828.34
2023-07-12T03:06:21.115Z,99833.97
2023-07-12T03:08:47.946Z,99835.03
2023-07-12T03:11:14.850Z,99835.81
2023-07-12T03:13:41.817Z,99839.38
2023-07-12T03:16:08.795Z,99831.72
2023-07-12T03:18:35.835Z,99837.34
2023-07-12T03:21:02.858Z,99829.81
2023-07-12T03:23:29.906Z,99835.03
2023-07-12T03:25:56.814Z,99844.19
2023-07-12T03:28:23.867Z,99839.22
2023-07-12T03:30:50.836Z,99846.31
2023-07-12T03:33:17.681Z,99841.75
2023-07-12T03:35:44.720Z,99849.41
2023-07-12T03:38:11.694Z,99850.94
2023-07-12T03:40:38.510Z,99845.06
2023-07-12T03:43:05.295Z,99848.06
2023-07-12T03:45:32.133Z,99838.00
2023-07-12T03:47:58.961Z,99841.38
2023-07-12T03:50:25.863Z,99834.22
2023-07-12T03:52:52.749Z,99833.03
2023-07-12T03:55:19.604Z,99834.06
2023-07-12T03:57:46.490Z,99841.75
2023-07-12T04:00:13.297Z,99830.34
2023-07-12T04:02:40.213Z,99827.16
2023-07-12T04:05:07.056Z,99841.78
2023-07-12T04:07:34.043Z,99833.47
2023-07-12T04:10:00.989Z,99838.88
2023-07-12T04:12:27.988Z,99842.03
2023-07-12T04:14:54.883Z,99836.63
2023-07-12T04:17:21.743Z,99837.22
2023-07-12T04:19:48.611Z,99833.16
2023-07-12T04:22:15.446Z,99831.22
2023-07-12T04:24:42.313Z,99834.53
2023-07-12T04:27:09.325Z,99817.22
2023-07-12T04:29:36.179Z,99821.44
2023-07-12T04:32:03.225Z,99813.63
2023-07-12T04:36:59.987Z,99806.09
2023-07-12T04:39:26.960Z,99807.75
2023-07-12T04:41:56.853Z,99822.34
2023-07-12T04:44:23.699Z,99831.81
2023-07-12T04:46:50.649Z,99838.56
2023-07-12T04:49:17.548Z,99836.47
2023-07-12T04:51:44.542Z,99854.81
2023-07-12T04:54:11.623Z,99849.88
2023-07-12T04:56:38.518Z,99859.44
2023-07-12T04:59:06.248Z,99855.22
2023-07-12T05:01:33.247Z,99856.06
2023-07-12T05:04:00.226Z,99843.66
2023-07-12T05:06:27.161Z,99831.16
2023-07-12T05:08:54.106Z,99834.94
2023-07-12T05:11:21.119Z,99823.69
2023-07-12T05:13:47.938Z,99822.03
2023-07-12T05:16:15.067Z,99824.09
2023-07-12T05:18:42.023Z,99833.28
2023-07-12T05:21:09.335Z,99839.13
2023-07-12T05:23:36.349Z,99833.13
2023-07-12T05:26:03.307Z,99835.00
2023-07-12T05:28:30.352Z,99837.03
2023-07-12T05:30:57.353Z,99841.25
2023-07-12T05:33:24.477Z,99841.25
2023-07-12T05:35:51.502Z,99843.72
2023-07-12T05:38:18.352Z,99847.94
2023-07-12T05:40:45.361Z,99844.56
2023-07-12T05:43:12.346Z,99847.09
2023-07-12T05:45:39.351Z,99840.03
2023-07-12T05:48:06.295Z,99850.38
2023-07-12T05:50:33.103Z,99850.78
2023-07-12T05:52:59.936Z,99852.94
2023-07-12T05:55:26.848Z,99848.72
2023-07-12T05:57:53.948Z,99839.63
2023-07-12T06:00:20.860Z,99849.19
2023-07-12T06:02:47.803Z,99847.53
2023-07-12T06:05:14.767Z,99849.47
2023-07-12T06:07:41.765Z,99844.66
2023-07-12T06:10:08.753Z,99847.19
2023-07-12T06:12:35.559Z,99844.66
2023-07-12T06:15:02.417Z,99838.06
2023-07-12T06:17:29.376Z,99841.94
2023-07-12T06:19:56.272Z,99850.50
2023-07-12T06:22:24.205Z,99852.94
2023-07-12T06:24:51.723Z,99849.25
2023-07-12T06:27:18.587Z,99850.72
2023-07-12T06:29:45.676Z,99857.41
2023-07-12T06:32:12.674Z,99856.97
2023-07-12T06:34:39.640Z,99853.81
2023-07-12T06:37:06.466Z,99858.00
2023-07-12T06:39:33.319Z,99854.69
2023-07-12T06:42:00.137Z,99862.22
2023-07-12T06:44:27.041Z,99862.22
2023-07-12T06:46:53.987Z,99870.91
2023-07-12T06:49:20.965Z,99872.16
2023-07-12T06:51:47.809Z,99866.28
2023-07-12T06:54:14.923Z,99862.22
2023-07-12T06:56:41.832Z,99871.34
2023-07-12T06:59:08.858Z,99877.97
2023-07-12T07:01:35.828Z,99878.84
2023-07-12T07:04:02.786Z,99875.50
2023-07-12T07:06:29.688Z,99874.69
2023-07-12T07:08:59.617Z,99880.28
2023-07-12T07:11:26.500Z,99888.78
2023-07-12T07:13:53.544Z,99889.66
2023-07-12T07:16:20.489Z,99884.63
2023-07-12T07:18:47.564Z,99879.28
2023-07-12T07:21:14.720Z,99877.16
2023-07-12T07:23:41.614Z,99881.31
2023-07-12T07:26:11.093Z,99872.59
2023-07-12T07:28:38.571Z,99875.50
2023-07-12T07:31:05.526Z,99882.81
2023-07-12T07:33:32.406Z,99891.31
2023-07-12T07:35:59.222Z,99887.59
2023-07-12T07:38:26.119Z,99890.53
2023-07-12T07:40:53.066Z,99891.72
2023-07-12T07:43:19.928Z,99900.91
2023-07-12T07:45:46.764Z,99903.00
2023-07-12T07:48:13.702Z,99911.56
2023-07-12T07:50:40.519Z,99920.09
2023-07-12T07:53:07.365Z,99915.91
2023-07-12T07:55:34.190Z,99919.22
2023-07-12T07:58:01.125Z,99904.72
2023-07-12T08:00:27.978Z,99903.88
2023-07-12T08:02:55.078Z,99895.50
2023-07-12T08:05:21.947Z,99898.84
2023-07-12T08:07:48.785Z,99900.13
2023-07-12T08:10:15.945Z,99903.00
2023-07-12T08:12:42.876Z,99895.94
2023-07-12T08:15:09.859Z,99888.88
2023-07-12T08:17:36.850Z,99899.69
2023-07-12T08:20:03.825Z,99912.16
2023-07-12T08:22:30.799Z,99912.97
2023-07-12T08:24:57.746Z,99917.13
2023-07-12T08:27:24.735Z,99916.06
2023-07-12T08:29:51.688Z,99911.72
2023-07-12T08:32:18.498Z,99915.91
2023-07-12T08:34:45.375Z,99909.28
2023-07-12T08:37:12.280Z,99917.78
2023-07-12T08:39:39.283Z,99914.25
2023-07-12T08:42:06.340Z,99903.88
2023-07-12T08:44:33.251Z,99905.09
2023-07-12T08:47:00.066Z,99900.56
2023-07-12T08:49:26.955Z,99902.22
2023-07-12T08:51:53.875Z,99899.69
2023-07-12T08:54:20.854Z,99902.22
2023-07-12T08:56:47.709Z,99889.31
2023-07-12T08:59:14.857Z,99889.31
2023-07-12T09:01:41.848Z,99890.34
2023-07-12T09:04:08.710Z,99886.38
2023-07-12T09:06:35.555Z,99868.94
2023-07-12T09:09:02.674Z,99875.19
2023-07-12T09:11:29.605Z,99883.09
2023-07-12T09:13:56.581Z,99879.34
2023-07-12T09:16:23.613Z,99881.63
2023-07-12T09:18:50.534Z,99882.69
2023-07-12T09:21:17.405Z,99887.66
2023-07-12T09:23:44.480Z,99887.66
2023-07-12T09:26:11.405Z,99896.63
2023-07-12T09:28:38.246Z,99908.47
2023-07-12T09:31:05.093Z,99912.25
2023-07-12T09:33:32.064Z,99929.28
2023-07-12T09:35:58.963Z,99928.00
2023-07-12T09:38:26.007Z,99925.94
2023-07-12T09:40:53.034Z,99931.34
2023-07-12T09:43:19.931Z,99941.91
2023-07-12T09:45:59.581Z,99950.28
2023-07-12T09:48:33.706Z,99956.28
2023-07-12T09:51:00.596Z,99941.75
2023-07-12T09:53:27.415Z,99937.63
2023-07-12T09:55:54.455Z,99952.19
2023-07-12T09:58:21.303Z,99949.63
2023-07-12T10:00:48.157Z,99944.22
2023-07-12T10:03:15.087Z,99937.16
2023-07-12T10:05:42.040Z,99922.59
2023-07-12T10:08:08.972Z,99924.69
2023-07-12T10:10:37.436Z,99915.53
2023-07-12T10:13:04.471Z,99917.19
2023-07-12T10:15:31.341Z,99929.69
2023-07-12T10:17:58.425Z,99938.22
2023-07-12T10:20:25.541Z,99934.91
2023-07-12T10:22:52.523Z,99932.22
2023-07-12T10:25:19.405Z,99935.97
2023-07-12T10:27:46.504Z,99933.88
2023-07-12T10:30:13.434Z,99937.63
2023-07-12T10:32:40.422Z,99938.06
2023-07-12T10:35:07.355Z,99937.16
2023-07-12T10:37:34.275Z,99922.25
2023-07-12T10:40:01.371Z,99927.66
2023-07-12T10:42:28.218Z,99918.09
2023-07-12T10:44:55.146Z,99912.69
2023-07-12T10:47:22.021Z,99912.25
2023-07-12T10:49:48.939Z,99913.09
2023-07-12T10:52:15.853Z,99909.34
2023-07-12T10:54:42.848Z,99919.13
2023-07-12T10:57:09.769Z,99927.66
2023-07-12T10:59:36.590Z,99940.13
2023-07-12T11:02:03.489Z,99931.41
2023-07-12T11:04:30.437Z,99924.34
2023-07-12T11:06:57.406Z,99925.81
2023-07-12T11:09:24.388Z,99933.06
2023-07-12T11:11:51.206Z,99918.50
2023-07-12T11:14:18.077Z,99910.59
2023-07-12T11:16:45.035Z,99909.97
2023-07-12T11:19:11.964Z,99911.44
2023-07-12T11:21:38.907Z,99918.94
2023-07-12T11:24:05.821Z,99924.34
2023-07-12T11:26:35.700Z,99918.94
2023-07-12T11:29:02.605Z,99919.13
2023-07-12T11:31:29.642Z,99907.69
2023-07-12T11:33:56.540Z,99905.84
2023-07-12T11:36:23.421Z,99906.03
2023-07-12T11:38:50.316Z,99906.09
2023-07-12T11:41:17.264Z,99910.84
2023-07-12T11:43:44.378Z,99919.75
2023-07-12T11:46:11.345Z,99902.28
2023-07-12T11:48:38.202Z,99896.88
2023-07-12T11:51:05.125Z,99897.31
2023-07-12T11:53:32.188Z,99898.38
2023-07-12T11:55:59.181Z,99903.56
2023-07-12T11:58:26.139Z,99911.28
2023-07-12T12:00:53.119Z,99915.66
2023-07-12T12:03:20.078Z,99915.66
2023-07-12T12:05:47.101Z,99908.59
2023-07-12T12:08:17.217Z,99916.84
2023-07-12T12:10:44.198Z,99908.59
2023-07-12T12:13:11.125Z,99902.72
2023-07-12T12:15:38.405Z,99906.66
2023-07-12T12:18:05.482Z,99911.44
2023-07-12T12:20:32.802Z,99912.31
2023-07-12T12:23:00.316Z,99898.78
2023-07-12T12:25:27.399Z,99886.91
2023-07-12T12:27:54.268Z,99884.25
2023-07-12T12:30:21.297Z,99887.72
2023-07-12T12:32:48.271Z,99885.66
2023-07-12T12:35:15.108Z,99893.97
2023-07-12T12:37:42.009Z,99890.63
2023-07-12T12:40:08.848Z,99883.59
2023-07-12T12:42:38.673Z,99887.72
2023-07-12T12:45:05.482Z,99886.31
2023-07-12T12:47:32.466Z,99883.59
2023-07-12T12:55:04.298Z,99897.50
2023-07-12T13:08:44.583Z,99893.75
2023-07-12T13:18:19.170Z,99889.41
2023-07-12T13:20:45.560Z,99893.13
2023-07-12T13:25:49.334Z,99896.47
2023-07-12T13:28:16.206Z,99896.47
2023-07-12T13:30:43.163Z,99894.38
2023-07-12T13:33:10.193Z,99899.31
2023-07-12T13:40:38.717Z,99898.13
2023-07-12T13:43:10.807Z,99896.84
2023-07-12T13:45:54.279Z,99892.72
2023-07-12T13:48:21.270Z,99897.06
2023-07-12T13:50:48.102Z,99900.38
2023-07-12T13:53:15.079Z,99908.47
2023-07-12T13:55:44.969Z,99894.56
2023-07-12T13:58:14.833Z,99896.41
2023-07-12T14:01:09.239Z,99902.88
2023-07-12T14:03:31.765Z,99894.31
2023-07-12T14:06:01.166Z,99890.16
2023-07-12T14:10:57.849Z,99895.56
2023-07-12T14:13:27.709Z,99902.22
2023-07-12T14:15:54.659Z,99904.31
2023-07-12T14:18:21.532Z,99906.38
2023-07-12T14:20:48.447Z,99905.09
2023-07-12T14:23:15.404Z,99903.44
2023-07-12T14:25:42.370Z,99905.09
2023-07-12T14:28:11.543Z,99903.44
2023-07-12T14:33:10.169Z,99897.59
2023-07-12T14:35:37.111Z,99897.59
2023-07-12T14:38:04.109Z,99896.53
2023-07-12T14:40:30.943Z,99901.75
2023-07-12T14:42:57.935Z,99906.31
2023-07-12T14:45:24.750Z,99903.41
2023-07-12T14:47:51.625Z,99901.50
2023-07-12T14:50:18.534Z,99908.59
2023-07-12T14:52:45.543Z,99910.88
2023-07-12T14:55:12.568Z,99911.72
2023-07-12T14:58:08.659Z,99905.47
2023-07-12T15:00:26.314Z,99898.38
2023-07-12T15:02:53.300Z,99904.84
2023-07-12T15:05:20.276Z,99901.25
2023-07-12T15:07:47.240Z,99901.91
2023-07-12T15:10:14.206Z,99902.94
2023-07-12T15:12:41.195Z,99902.09
2023-07-12T15:15:08.043Z,99906.25
2023-07-12T15:17:34.900Z,99900.25
2023-07-12T15:20:01.892Z,99898.13
2023-07-12T15:22:28.815Z,99905.41
2023-07-12T15:24:57.042Z,99890.41
2023-07-12T15:27:23.882Z,99900.41
2023-07-12T15:29:50.947Z,99906.41
2023-07-12T15:32:17.901Z,99902.69
2023-07-12T15:34:44.916Z,99905.38
2023-07-12T15:37:11.802Z,99902.22
2023-07-12T15:39:38.646Z,99894.13
2023-07-12T15:42:05.560Z,99905.53
2023-07-12T15:44:32.488Z,99900.75
2023-07-12T15:46:59.392Z,99902.81
2023-07-12T15:49:26.472Z,99903.47
2023-07-12T15:51:53.313Z,99894.06
2023-07-12T15:54:20.243Z,99894.88
2023-07-12T15:56:47.283Z,99898.41
2023-07-12T15:59:14.362Z,99900.91
2023-07-12T16:01:41.177Z,99899.84
2023-07-12T16:04:08.024Z,99895.06
2023-07-12T16:06:34.980Z,99891.91
2023-07-12T16:09:01.892Z,99891.44
2023-07-12T16:11:28.746Z,99897.78
2023-07-12T16:14:00.796Z,99912.00
2023-07-12T16:16:28.816Z,99903.66
2023-07-12T16:18:55.873Z,99906.03
2023-07-12T16:21:22.735Z,99905.59
2023-07-12T16:23:49.632Z,99900.94
2023-07-12T16:26:16.569Z,99901.56
2023-07-12T16:28:43.528Z,99905.94
2023-07-12T16:31:10.470Z,99896.53
2023-07-12T16:33:37.356Z,99906.31
2023-07-12T16:36:04.394Z,99906.31
2023-07-12T16:38:31.245Z,99904.22
2023-07-12T16:40:58.190Z,99896.09
2023-07-12T16:43:25.324Z,99893.16
2023-07-12T16:45:52.150Z,99901.88
2023-07-12T16:48:19.035Z,99899.19
2023-07-12T16:50:45.968Z,99902.50
2023-07-12T16:53:12.920Z,99902.50
2023-07-12T16:55:39.768Z,99905.84
2023-07-12T16:58:06.885Z,99891.25
2023-07-12T17:00:33.830Z,99897.47
2023-07-12T17:03:00.800Z,99894.56
2023-07-12T17:05:27.881Z,99905.38
2023-07-12T17:07:54.863Z,99907.88
2023-07-12T17:10:21.972Z,99897.88
2023-07-12T17:12:48.856Z,99902.47
2023-07-12T17:15:15.756Z,99898.47
2023-07-12T17:17:42.853Z,99898.47
2023-07-12T17:20:09.670Z,99893.69
2023-07-12T17:22:36.890Z,99895.31
2023-07-12T17:25:04.026Z,99900.75
2023-07-12T17:27:30.864Z,99891.56
2023-07-12T17:29:57.734Z,99907.81
2023-07-12T17:32:24.754Z,99915.94
2023-07-12T17:34:51.859Z,99920.28
2023-07-12T17:37:18.707Z,99921.13
2023-07-12T17:39:52.211Z,99921.94
2023-07-12T17:42:26.234Z,99916.53
2023-07-12T17:44:53.041Z,99914.41
2023-07-12T17:47:19.896Z,99921.72
2023-07-12T17:49:46.695Z,99921.50
2023-07-12T17:52:13.668Z,99932.34
2023-07-12T17:54:40.520Z,99923.16
2023-07-12T17:57:07.388Z,99917.75
2023-07-12T17:59:37.240Z,99921.50
2023-07-12T18:02:04.223Z,99923.16
2023-07-12T18:04:31.210Z,99917.75
2023-07-12T18:06:58.053Z,99927.53
2023-07-12T18:09:25.155Z,99928.56
2023-07-12T18:11:52.009Z,99931.88
2023-07-12T18:14:18.952Z,99920.22
2023-07-12T18:16:46.041Z,99933.53
2023-07-12T18:19:12.972Z,99928.13
2023-07-12T18:21:39.853Z,99930.63
2023-07-12T18:24:06.883Z,99940.59
2023-07-12T18:26:33.896Z,99936.03
2023-07-12T18:29:00.717Z,99943.09
2023-07-12T18:31:27.626Z,99944.97
2023-07-12T18:33:54.644Z,99933.09
2023-07-12T18:36:21.712Z,99946.63
2023-07-12T18:38:48.517Z,99942.88
2023-07-12T18:41:15.401Z,99954.75
2023-07-12T18:43:42.193Z,99951.81
2023-07-12T18:46:09.308Z,99945.59
2023-07-12T18:48:36.574Z,99955.38
2023-07-12T18:51:03.396Z,99959.13
2023-07-12T18:53:30.203Z,99956.41
2023-07-12T18:56:00.056Z,99958.06
2023-07-12T18:58:27.105Z,99963.47
2023-07-12T19:00:54.007Z,99965.13
2023-07-12T19:03:20.884Z,99966.78
2023-07-12T19:05:47.999Z,99971.38
2023-07-12T19:08:14.973Z,99971.59
2023-07-12T19:10:41.956Z,99968.91
2023-07-12T19:13:08.773Z,99965.13
2023-07-12T19:15:35.856Z,99965.94
2023-07-12T19:18:02.911Z,99975.13
2023-07-12T19:20:29.823Z,99972.41
2023-07-12T19:22:56.796Z,99974.31
2023-07-12T19:25:23.703Z,99977.63
2023-07-12T19:27:50.567Z,99975.97
2023-07-12T19:30:17.660Z,99987.84
2023-07-12T19:32:44.701Z,99999.28
2023-07-12T19:35:11.846Z,99990.56
2023-07-12T19:37:38.698Z,100000.34
2023-07-12T19:40:05.788Z,100001.38
2023-07-12T19:42:32.765Z,99992.22
2023-07-12T19:44:59.657Z,99995.13
2023-07-12T19:47:26.497Z,99994.31
2023-07-12T19:49:53.399Z,99987.25
2023-07-12T19:52:20.234Z,99998.09
2023-07-12T19:54:47.145Z,100001.81
2023-07-12T19:57:14.092Z,100008.91
2023-07-12T19:59:40.970Z,100012.66
2023-07-12T20:02:08.019Z,100004.53
2023-07-12T20:04:34.975Z,100000.16
2023-07-12T20:07:01.994Z,100018.06
2023-07-12T20:09:29.093Z,100011.84
2023-07-12T20:11:56.048Z,100016.41
2023-07-12T20:14:23.321Z,100013.94
2023-07-12T20:16:50.234Z,100015.59
2023-07-12T20:19:17.270Z,100021.81
2023-07-12T20:21:44.202Z,100023.09
2023-07-12T20:24:11.091Z,100033.09
2023-07-12T20:26:38.131Z,100027.69
2023-07-12T20:29:05.110Z,100049.34
2023-07-12T20:31:32.137Z,100042.28
2023-07-12T20:33:59.052Z,100054.75
2023-07-12T20:36:25.954Z,100067.69
2023-07-12T20:38:52.977Z,100067.69
2023-07-12T20:41:23.113Z,100067.69
2023-07-12T20:43:49.980Z,100066.00
2023-07-12T20:46:17.179Z,100067.69
2023-07-12T20:48:44.259Z,100071.44
2023-07-12T20:51:11.082Z,100069.78
2023-07-12T20:53:38.223Z,100064.38
2023-07-12T20:56:05.149Z,100065.41
2023-07-12T20:58:32.159Z,100074.38
2023-07-12T21:00:59.091Z,100077.28
2023-07-12T21:03:25.940Z,100089.78
2023-07-12T21:05:53.033Z,100085.41
2023-07-12T21:08:19.903Z,100087.31
2023-07-12T21:10:49.857Z,100082.72
2023-07-12T21:13:16.715Z,100094.59
2023-07-12T21:15:43.628Z,100093.75
2023-07-12T21:18:10.554Z,100084.81
2023-07-12T21:20:37.389Z,100090.22
2023-07-12T21:23:04.292Z,100094.81
2023-07-12T21:25:31.210Z,100092.34
2023-07-12T21:27:58.142Z,100102.31
2023-07-12T21:30:25.142Z,100092.34
2023-07-12T21:32:52.161Z,100103.16
2023-07-12T21:35:19.083Z,100104.19
2023-07-12T21:37:46.063Z,100099.81
2023-07-12T21:40:13.101Z,100103.56
2023-07-12T21:42:39.998Z,100101.47
2023-07-12T21:45:06.982Z,100098.78
2023-07-12T21:47:33.956Z,100101.47
2023-07-12T21:50:02.670Z,100104.44
2023-07-12T21:52:30.095Z,100098.16
2023-07-12T21:54:57.112Z,100105.22
2023-07-12T21:57:24.037Z,100101.94
2023-07-12T21:59:50.934Z,100096.50
2023-07-12T22:02:17.857Z,100098.16
2023-07-12T22:04:44.884Z,100099.00
2023-07-12T22:07:11.783Z,100101.94
2023-07-12T22:09:38.837Z,100100.47
2023-07-12T22:12:05.786Z,100109.44
2023-07-12T22:14:32.771Z,100116.97
2023-07-12T22:17:02.681Z,100115.91
2023-07-12T22:19:30.053Z,100117.16
2023-07-12T22:21:56.939Z,100118.41
2023-07-12T22:24:24.085Z,100123.59
2023-07-12T22:26:50.942Z,100121.09
2023-07-12T22:29:18.047Z,100124.84
2023-07-12T22:31:45.012Z,100126.50
2023-07-12T22:34:11.925Z,100119.44
2023-07-12T22:36:38.900Z,100121.09
2023-07-12T22:39:05.909Z,100127.78
2023-07-12T22:41:32.819Z,100133.19
2023-07-12T22:43:59.710Z,100122.56
2023-07-12T22:46:26.801Z,100131.91
2023-07-12T22:48:53.715Z,100126.50
2023-07-12T22:51:20.585Z,100137.72
2023-07-12T22:53:47.685Z,100137.50
2023-07-12T22:56:14.628Z,100140.28
2023-07-12T22:58:41.529Z,100142.34
2023-07-12T23:01:08.556Z,100131.09
2023-07-12T23:03:35.596Z,100140.50
2023-07-12T23:06:02.807Z,100140.03
2023-07-12T23:08:29.963Z,100140.69
2023-07-12T23:10:56.904Z,100146.09
2023-07-12T23:13:23.881Z,100139.00
2023-07-12T23:15:50.792Z,100144.41
2023-07-12T23:18:17.761Z,100139.00
2023-07-12T23:20:44.629Z,100134.03
2023-07-12T23:23:11.476Z,100130.28
2023-07-12T23:25:38.490Z,100133.59
2023-07-12T23:28:05.351Z,100134.03
2023-07-12T23:30:32.229Z,100129.22
2023-07-12T23:32:59.276Z,100132.38
2023-07-12T23:35:26.155Z,100133.63
2023-07-12T23:37:53.051Z,100141.94
2023-07-12T23:40:20.049Z,100134.03
2023-07-12T23:42:46.942Z,100138.84
2023-07-12T23:45:13.947Z,100144.00
2023-07-12T23:47:40.856Z,100138.66
2023-07-12T23:50:07.877Z,100144.88
2023-07-12T23:52:34.879Z,100131.13
2023-07-12T23:55:01.709Z,100132.38
2023-07-12T23:57:28.734Z,100135.34
2023-07-12T23:59:55.545Z,100131.56
